createdAt,value
2022-08-28T05:49:24.490Z,14.50
2022-08-28T05:54:28.244Z,14.60
2022-08-28T05:59:30.997Z,14.60
2022-08-28T06:04:32.864Z,14.60
2022-08-28T06:09:34.731Z,14.60
2022-08-28T06:14:36.513Z,14.70
2022-08-28T06:19:41.519Z,14.80
2022-08-28T06:24:43.681Z,14.80
2022-08-28T06:29:45.838Z,14.90
2022-08-28T06:34:47.743Z,14.90
2022-08-28T06:39:49.536Z,15.00
2022-08-28T06:44:51.322Z,15.00
2022-08-28T06:49:54.484Z,15.10
2022-08-28T06:54:56.864Z,15.20
2022-08-28T06:59:59.189Z,15.40
2022-08-28T07:05:01.239Z,15.50
2022-08-28T07:10:03.399Z,15.70
2022-08-28T07:15:05.885Z,15.80
2022-08-28T07:20:08.289Z,15.90
2022-08-28T07:25:11.236Z,16.10
2022-08-28T07:30:13.679Z,16.30
2022-08-28T07:35:17.073Z,16.40
2022-08-28T07:40:20.184Z,16.60
2022-08-28T07:45:22.248Z,16.80
2022-08-28T07:50:24.244Z,16.90
2022-08-28T07:55:28.048Z,17.00
2022-08-28T08:00:30.369Z,17.20
2022-08-28T08:05:32.150Z,17.30
2022-08-28T08:10:34.311Z,17.40
2022-08-28T08:15:36.663Z,17.60
2022-08-28T08:20:38.686Z,17.70
2022-08-28T08:25:40.623Z,17.80
2022-08-28T08:30:42.584Z,17.80
2022-08-28T08:35:44.513Z,17.90
2022-08-28T08:40:46.388Z,18.00
2022-08-28T08:45:49.871Z,18.00
2022-08-28T08:50:52.990Z,18.20
2022-08-28T08:55:56.992Z,18.30
2022-08-28T09:01:17.330Z,18.30
2022-08-28T09:06:51.633Z,18.30
2022-08-28T09:11:58.415Z,18.30
2022-08-28T09:17:01.169Z,18.30
2022-08-28T09:22:03.489Z,18.30
2022-08-28T09:27:21.095Z,18.40
2022-08-28T09:32:32.935Z,18.50
2022-08-28T09:37:36.712Z,18.50
2022-08-28T09:42:56.908Z,18.60
2022-08-28T09:47:59.710Z,18.70
2022-08-28T09:53:22.288Z,18.80
2022-08-28T09:58:30.648Z,18.80
2022-08-28T10:03:39.341Z,18.80
2022-08-28T10:08:56.410Z,18.90
2022-08-28T10:14:21.497Z,19.10
2022-08-28T10:19:44.904Z,19.20
2022-08-28T10:25:24.006Z,19.50
2022-08-28T10:30:26.103Z,19.80
2022-08-28T10:35:40.092Z,20.00
2022-08-28T10:40:48.189Z,20.10
2022-08-28T10:45:51.943Z,20.10
2022-08-28T10:51:01.131Z,20.10
2022-08-28T10:56:25.432Z,20.20
2022-08-28T11:01:31.705Z,20.70
2022-08-28T11:06:39.006Z,21.00
2022-08-28T11:11:44.427Z,21.10
2022-08-28T11:16:47.207Z,21.00
2022-08-28T11:21:56.258Z,21.10
2022-08-28T11:26:58.792Z,21.50
2022-08-28T11:32:32.790Z,21.70
2022-08-28T11:37:59.796Z,22.10
2022-08-28T11:43:20.914Z,22.10
2022-08-28T11:48:27.268Z,21.90
2022-08-28T11:53:38.125Z,21.90
2022-08-28T11:58:51.825Z,22.40
2022-08-28T12:03:59.732Z,22.60
2022-08-28T12:09:04.695Z,23.00
2022-08-28T12:14:11.851Z,23.30
2022-08-28T12:19:26.731Z,23.50
2022-08-28T12:24:29.178Z,23.70
2022-08-28T12:29:55.220Z,23.40
2022-08-28T12:35:00.277Z,23.50
2022-08-28T12:40:09.266Z,23.80
2022-08-28T12:45:17.940Z,24.00
2022-08-28T12:50:22.699Z,24.40
2022-08-28T12:55:24.807Z,24.60
2022-08-28T13:00:32.953Z,24.30
2022-08-28T13:05:41.423Z,24.50
2022-08-28T13:10:51.258Z,24.30
2022-08-28T13:15:57.988Z,24.10
2022-08-28T13:21:33.280Z,24.50
2022-08-28T13:26:37.645Z,24.80
2022-08-28T13:31:39.757Z,24.70
2022-08-28T13:36:48.245Z,24.30
2022-08-28T13:41:53.961Z,24.10
2022-08-28T13:46:57.031Z,24.30
2022-08-28T13:52:00.293Z,24.10
2022-08-28T13:57:04.293Z,24.40
2022-08-28T14:02:26.142Z,24.10
2022-08-28T14:07:29.446Z,23.70
2022-08-28T14:12:32.844Z,23.40
2022-08-28T14:17:35.777Z,23.30
2022-08-28T14:22:38.225Z,23.30
2022-08-28T14:27:40.150Z,23.60
2022-08-28T14:32:42.786Z,24.00
2022-08-28T14:37:45.010Z,24.40
2022-08-28T14:42:48.224Z,24.60
2022-08-28T14:47:50.108Z,24.50
2022-08-28T14:52:51.935Z,24.10
2022-08-28T14:57:54.136Z,23.90
2022-08-28T15:02:59.840Z,24.00
2022-08-28T15:08:03.003Z,24.00
2022-08-28T15:13:05.543Z,24.10
2022-08-28T15:18:12.454Z,24.30
2022-08-28T15:23:15.351Z,24.30
2022-08-28T15:28:17.562Z,24.60
2022-08-28T15:33:19.424Z,24.70
2022-08-28T15:38:21.579Z,24.80
2022-08-28T15:43:23.391Z,24.90
2022-08-28T15:48:25.229Z,25.00
2022-08-28T15:53:27.194Z,24.90
2022-08-28T15:58:29.833Z,24.90
2022-08-28T16:03:32.440Z,24.90
2022-08-28T16:08:34.305Z,24.80
2022-08-28T16:13:36.295Z,24.80
2022-08-28T16:18:38.254Z,24.70
2022-08-28T16:23:40.386Z,24.60
2022-08-28T16:28:43.741Z,24.70
2022-08-28T16:33:45.625Z,24.70
2022-08-28T16:38:49.302Z,24.40
2022-08-28T16:44:01.706Z,23.90
2022-08-28T16:49:03.625Z,23.80
2022-08-28T16:54:05.648Z,23.60
2022-08-28T16:59:10.653Z,23.30
2022-08-28T17:04:12.854Z,23.10
2022-08-28T17:09:16.105Z,22.70
2022-08-28T17:14:19.300Z,22.50
2022-08-28T17:19:24.459Z,22.40
2022-08-28T17:24:26.573Z,22.20
2022-08-28T17:29:29.049Z,22.20
2022-08-28T17:34:38.349Z,22.00
2022-08-28T17:39:40.317Z,21.90
2022-08-28T17:44:42.833Z,21.80
2022-08-28T17:49:44.780Z,21.70
2022-08-28T17:54:46.829Z,21.60
2022-08-28T17:59:50.462Z,21.50
2022-08-28T18:04:52.681Z,21.40
2022-08-28T18:09:54.576Z,21.30
2022-08-28T18:14:56.668Z,21.10
2022-08-28T18:20:00.121Z,20.90
2022-08-28T18:25:04.489Z,20.80
2022-08-28T18:30:08.497Z,20.70
2022-08-28T18:35:10.361Z,20.60
2022-08-28T18:40:12.485Z,20.60
2022-08-28T18:45:14.871Z,20.50
2022-08-28T18:50:17.060Z,20.40
2022-08-28T18:55:20.236Z,20.30
2022-08-28T19:00:23.486Z,20.20
2022-08-28T19:05:25.773Z,20.00
